Time;durP1;ratioP1;P1;durP2;ratioP2;P2;SDS_P1;SDS_P2;PMS_P1;PMS_P2;Temp;Humidity;BMP_temperature;BMP_pressure;BME280_temperature;BME280_humidity;BME280_pressure;Samples;Min_cycle;Max_cycle;Signal;HPM_P1;HPM_P2
2023/03/27 00:00:19;;;;;;;0.00;0.00;;;;;;;7.16;62.86;101766.25;7344203;19;20003;-65
2023/03/27 00:02:47;;;;;;;0.00;0.00;;;;;;;7.13;62.77;101760.13;7343449;19;20099;-63
2023/03/27 00:05:13;;;;;;;0.00;0.00;;;;;;;7.11;62.14;101767.06;7344072;19;20015;-66
2023/03/27 00:07:40;;;;;;;0.00;0.00;;;;;;;7.08;61.87;101772.22;7342474;19;20516;-64
2023/03/27 00:10:07;;;;;;;0.00;0.00;;;;;;;7.06;61.66;101784.34;7342219;19;20029;-66
2023/03/27 00:12:32;;;;;;;0.00;0.00;;;;;;;7.02;61.45;101784.28;7342152;19;20831;-65
2023/03/27 00:14:59;;;;;;;0.00;0.00;;;;;;;6.90;61.00;101768.59;7341155;19;20018;-65
2023/03/27 00:17:26;;;;;;;0.00;0.00;;;;;;;6.97;61.02;101785.09;7320807;19;20015;-65
2023/03/27 00:19:52;;;;;;;0.00;0.00;;;;;;;6.93;61.28;101789.38;7310620;19;20760;-64
2023/03/27 00:22:18;;;;;;;0.00;0.00;;;;;;;6.91;61.83;101785.91;7330787;19;20361;-66
2023/03/27 00:24:44;;;;;;;0.00;0.00;;;;;;;6.88;61.68;101785.88;7341444;19;20018;-65
2023/03/27 00:27:10;;;;;;;0.00;0.00;;;;;;;6.74;61.37;101769.28;7342941;19;20018;-66
2023/03/27 00:29:36;;;;;;;0.00;0.00;;;;;;;6.82;61.40;101788.41;7342333;19;20010;-65
2023/03/27 00:32:02;;;;;;;0.00;0.00;;;;;;;6.80;61.69;101792.75;7343896;19;22470;-65
2023/03/27 00:34:29;;;;;;;0.00;0.00;;;;;;;6.74;61.43;101793.56;7343968;19;20007;-65
2023/03/27 00:36:54;;;;;;;0.00;0.00;;;;;;;6.61;61.42;101775.22;7340944;19;20758;-64
2023/03/27 00:39:20;;;;;;;0.00;0.00;;;;;;;6.71;61.42;101803.03;7340726;19;20050;-66
2023/03/27 00:41:46;;;;;;;0.00;0.00;;;;;;;6.68;60.88;101818.53;7341540;19;20407;-65
2023/03/27 00:44:33;;;;;;;0.05;0.05;;;;;;;6.59;60.58;101797.69;7341379;19;20010;-65
2023/03/27 00:47:01;;;;;;;0.00;0.00;;;;;;;6.62;61.08;101828.88;7343635;19;20712;-65
2023/03/27 00:49:31;;;;;;;0.00;0.00;;;;;;;6.60;61.20;101825.41;7335392;19;20020;-66
2023/03/27 00:51:58;;;;;;;0.00;0.00;;;;;;;6.56;60.71;101828.81;7343354;19;20014;-65
2023/03/27 00:54:28;;;;;;;0.00;0.00;;;;;;;6.54;61.37;101820.09;7338191;19;20006;-66
2023/03/27 00:56:57;;;;;;;0.00;0.00;;;;;;;6.50;62.33;101812.31;7345172;19;20014;-65
2023/03/27 00:59:30;;;;;;;0.00;0.00;;;;;;;6.48;62.75;101818.31;7339596;19;20018;-66
2023/03/27 01:01:57;;;;;;;0.00;0.00;;;;;;;6.45;63.13;101824.34;7339243;19;20015;-65
2023/03/27 01:04:23;;;;;;;0.10;0.10;;;;;;;6.23;62.87;101798.97;7346032;19;20033;-65
2023/03/27 01:06:51;;;;;;;0.00;0.00;;;;;;;6.40;63.22;101833.81;7345598;19;20680;-65
2023/03/27 01:09:17;;;;;;;0.00;0.00;;;;;;;6.38;63.09;101825.09;7342523;19;20035;-64
2023/03/27 01:12:08;;;;;;;0.05;0.05;;;;;;;6.35;62.73;101817.31;7345071;19;20651;-66
2023/03/27 01:14:56;;;;;;;0.00;0.00;;;;;;;6.33;62.76;101821.59;7240890;19;2004270;-65
2023/03/27 01:17:31;;;;;;;0.00;0.00;;;;;;;6.29;63.27;101826.75;7350284;19;20017;-65
2023/03/27 01:20:33;;;;;;;0.00;0.00;;;;;;;6.25;62.62;101823.22;7349032;19;20010;-65
2023/03/27 01:23:01;;;;;;;0.00;0.00;;;;;;;6.20;63.04;101825.75;7246644;19;2004473;-65
2023/03/27 01:25:49;;;;;;;0.00;0.00;;;;;;;6.19;62.73;101828.34;7350439;19;20010;-65
2023/03/27 01:28:44;;;;;;;0.00;0.00;;;;;;;6.15;62.34;101821.38;7252549;19;2004477;-65
2023/03/27 01:31:47;;;;;;;0.00;0.00;;;;;;;6.11;62.22;101824.75;7250753;19;2005205;-65
2023/03/27 01:34:45;;;;;;;0.00;0.00;;;;;;;6.07;62.63;101828.16;7251097;19;2004031;-65
2023/03/27 01:37:36;;;;;;;0.00;0.00;;;;;;;6.05;62.19;101835.06;7250321;19;2004521;-65
2023/03/27 01:40:28;;;;;;;0.10;0.10;;;;;;;6.01;62.42;101838.44;7348552;19;20963;-65
2023/03/27 01:42:58;;;;;;;0.10;0.10;;;;;;;5.96;63.03;101839.25;7250903;19;2004247;-65
2023/03/27 01:45:26;;;;;;;0.00;0.00;;;;;;;5.93;62.49;101840.91;7353308;19;20017;-65
2023/03/27 01:48:20;;;;;;;0.00;0.00;;;;;;;5.90;62.61;101839.13;7354152;19;20018;-65
2023/03/27 01:50:50;;;;;;;0.00;0.00;;;;;;;5.84;62.75;101844.22;7245767;19;2004525;-65
2023/03/27 01:53:23;;;;;;;0.00;0.00;;;;;;;5.85;62.79;101847.69;7354023;19;20818;-65
2023/03/27 01:55:57;;;;;;;0.00;0.00;;;;;;;5.72;62.60;101841.44;7349649;19;20013;-65
2023/03/27 01:58:28;;;;;;;0.00;0.00;;;;;;;5.80;62.88;101845.03;7340645;19;20671;-65
2023/03/27 02:01:00;;;;;;;0.05;0.05;;;;;;;5.41;62.88;101788.28;7346788;19;20496;-65
2023/03/27 02:03:38;;;;;;;0.00;0.00;;;;;;;5.76;62.89;101850.13;7349958;19;21435;-66
2023/03/27 02:06:25;;;;;;;0.00;0.00;;;;;;;5.73;62.65;101838.03;7348272;19;20014;-65
2023/03/27 02:09:03;;;;;;;0.00;0.00;;;;;;;5.73;62.17;101841.47;7349715;19;20014;-65
2023/03/27 02:11:33;;;;;;;0.08;0.08;;;;;;;5.69;62.60;101838.81;7350663;19;20019;-65
2023/03/27 02:14:08;;;;;;;0.00;0.00;;;;;;;5.67;62.61;101837.91;7347104;19;20010;-65
2023/03/27 02:16:40;;;;;;;0.00;0.00;;;;;;;5.64;62.13;101840.47;7351544;19;20017;-65
2023/03/27 02:19:12;;;;;;;0.10;0.10;;;;;;;5.62;62.27;101839.56;7348188;19;20015;-65
2023/03/27 02:21:38;;;;;;;0.00;0.00;;;;;;;5.57;62.79;101836.00;7346976;19;20014;-65
2023/03/27 02:24:04;;;;;;;0.00;0.00;;;;;;;5.56;63.10;101836.88;7345933;19;20021;-65
2023/03/27 02:26:31;;;;;;;0.00;0.00;;;;;;;5.42;63.81;101816.81;7350206;19;20011;-65
2023/03/27 02:29:18;;;;;;;0.00;0.00;;;;;;;5.53;63.62;101834.25;7349325;19;20117;-65
2023/03/27 02:32:04;;;;;;;0.00;0.00;;;;;;;5.43;63.18;101826.31;7349351;19;20006;-66
2023/03/27 02:35:01;;;;;;;0.05;0.05;;;;;;;5.49;62.86;101837.63;7343993;19;20015;-65
2023/03/27 02:37:52;;;;;;;0.10;0.10;;;;;;;5.44;62.87;101838.41;7244929;19;2004707;-65
2023/03/27 02:41:03;;;;;;;0.00;0.00;;;;;;;5.42;62.64;101836.63;7339271;19;20006;-66
2023/03/27 02:43:39;;;;;;;0.05;0.05;;;;;;;5.36;63.90;101837.41;7240409;19;2004605;-65
2023/03/27 02:46:08;;;;;;;0.00;0.00;;;;;;;5.33;63.74;101837.38;7348264;19;20010;-65
2023/03/27 02:48:41;;;;;;;0.00;0.00;;;;;;;5.33;63.98;101842.56;7347713;19;20003;-65
2023/03/27 02:51:16;;;;;;;0.00;0.00;;;;;;;5.30;63.63;101845.06;7347479;19;20015;-66
2023/03/27 02:53:46;;;;;;;0.00;0.00;;;;;;;5.28;63.35;101839.00;7346199;19;20036;-65
2023/03/27 02:56:15;;;;;;;0.00;0.00;;;;;;;5.15;63.37;101819.78;7345693;19;20119;-65
2023/03/27 02:58:56;;;;;;;0.00;0.00;;;;;;;5.25;63.25;101844.13;7349438;19;20007;-65
2023/03/27 03:01:25;;;;;;;0.00;0.00;;;;;;;5.21;63.31;101837.16;7345895;19;20390;-65
2023/03/27 03:04:29;;;;;;;0.10;0.10;;;;;;;5.20;63.75;101840.59;7336765;19;20011;-65
2023/03/27 03:06:55;;;;;;;0.00;0.00;;;;;;;5.18;64.07;101842.28;7250095;19;2005636;-65
2023/03/27 03:09:23;;;;;;;0.00;0.00;;;;;;;5.15;64.79;101842.22;7352807;19;20006;-65
2023/03/27 03:11:51;;;;;;;0.00;0.00;;;;;;;5.14;64.70;101843.06;7357982;19;20014;-65
2023/03/27 03:14:19;;;;;;;;;;;;;;;5.13;63.33;101842.19;7361568;19;20354;-65
2023/03/27 03:16:45;;;;;;;0.00;0.00;;;;;;;5.09;64.55;101840.41;7356191;19;20007;-65
2023/03/27 03:19:10;;;;;;;0.10;0.10;;;;;;;5.05;64.82;101836.00;7345317;19;20022;-65
2023/03/27 03:21:36;;;;;;;0.00;0.00;;;;;;;5.04;64.99;101843.75;7357380;19;20055;-65
2023/03/27 03:24:02;;;;;;;0.00;0.00;;;;;;;4.89;65.20;101828.81;7358901;19;20013;-65
2023/03/27 03:26:29;;;;;;;0.00;0.00;;;;;;;4.97;65.55;101852.22;7359997;19;20806;-65
2023/03/27 03:28:56;;;;;;;0.10;0.10;;;;;;;4.93;64.94;101851.31;7361818;19;20466;-65
2023/03/27 03:31:22;;;;;;;;;;;;;;;4.91;63.85;101853.84;7359144;19;20659;-65
2023/03/27 03:33:47;;;;;;;0.00;0.00;;;;;;;4.82;64.28;101838.19;7357906;19;19990;-66
2023/03/27 03:36:13;;;;;;;0.03;0.03;;;;;;;4.83;64.40;101850.28;7359472;19;20010;-65
2023/03/27 03:38:40;;;;;;;0.00;0.00;;;;;;;4.80;64.30;101854.50;7362447;19;20122;-65
2023/03/27 03:41:05;;;;;;;0.00;0.00;;;;;;;4.79;64.40;101857.94;7357190;19;20784;-65
2023/03/27 03:43:31;;;;;;;0.00;0.00;;;;;;;4.69;64.80;101841.38;7361324;19;20013;-65
2023/03/27 03:45:57;;;;;;;0.00;0.00;;;;;;;4.52;64.63;101814.31;7358866;19;20025;-65
2023/03/27 03:48:22;;;;;;;0.00;0.00;;;;;;;4.70;65.25;101856.03;7359450;19;20060;-65
2023/03/27 03:50:49;;;;;;;0.05;0.05;;;;;;;4.69;64.94;101859.47;7358602;19;20014;-65
2023/03/27 03:53:17;;;;;;;0.00;0.00;;;;;;;4.63;64.74;101851.59;7360779;19;20021;-65
2023/03/27 03:55:43;;;;;;;0.00;0.00;;;;;;;4.64;64.60;101858.50;7359217;19;20007;-65
2023/03/27 03:58:09;;;;;;;0.00;0.00;;;;;;;4.63;65.05;101856.78;7360194;19;20043;-62
2023/03/27 04:00:37;;;;;;;0.00;0.00;;;;;;;4.61;64.57;101859.34;7359791;19;20369;-65
2023/03/27 04:03:04;;;;;;;0.08;0.08;;;;;;;4.59;64.34;101860.13;7356991;19;20010;-65
2023/03/27 04:05:30;;;;;;;0.00;0.00;;;;;;;4.56;64.01;101862.66;7358858;19;20351;-65
2023/03/27 04:07:58;;;;;;;0.10;0.10;;;;;;;4.54;63.93;101866.94;7357373;19;20017;-65
2023/03/27 04:10:24;;;;;;;0.05;0.05;;;;;;;4.53;63.81;101867.78;7357473;19;20014;-65
2023/03/27 04:12:50;;;;;;;0.05;0.05;;;;;;;4.48;64.43;101871.97;7359946;19;20013;-66
2023/03/27 04:15:16;;;;;;;0.10;0.10;;;;;;;4.49;64.77;101878.88;7356359;19;20878;-65
2023/03/27 04:17:42;;;;;;;0.00;0.00;;;;;;;4.45;65.21;101882.25;7358192;19;20014;-65
2023/03/27 04:20:08;;;;;;;0.00;0.00;;;;;;;4.28;65.01;101859.50;7358191;19;20360;-65
2023/03/27 04:22:37;;;;;;;0.00;0.00;;;;;;;4.38;65.06;101886.41;7357788;19;20014;-65
2023/03/27 04:25:07;;;;;;;0.00;0.00;;;;;;;4.35;65.42;101892.38;7360465;19;20021;-66
2023/03/27 04:27:34;;;;;;;0.00;0.00;;;;;;;4.30;65.84;101888.81;7354597;19;20045;-65
2023/03/27 04:30:01;;;;;;;0.00;0.00;;;;;;;4.26;65.60;101894.78;7357880;19;20034;-64
2023/03/27 04:32:26;;;;;;;0.03;0.03;;;;;;;4.24;65.76;101888.69;7357314;19;20092;-65
2023/03/27 04:34:53;;;;;;;0.00;0.00;;;;;;;4.23;65.30;101894.72;7354896;19;20070;-65
2023/03/27 04:37:19;;;;;;;0.08;0.08;;;;;;;4.06;65.68;101872.78;7356897;19;20938;-65
2023/03/27 04:39:45;;;;;;;0.10;0.10;;;;;;;4.17;65.21;101894.59;7356493;19;20106;-65
2023/03/27 04:42:12;;;;;;;0.00;0.00;;;;;;;4.16;64.96;101892.84;7359477;19;20010;-65
2023/03/27 04:44:38;;;;;;;0.00;0.00;;;;;;;4.15;64.79;101893.66;7354389;19;20014;-65
2023/03/27 04:47:05;;;;;;;0.00;0.00;;;;;;;4.13;64.75;101895.34;7359832;19;20022;-66
2023/03/27 04:49:37;;;;;;;0.00;0.00;;;;;;;4.11;65.03;101892.72;7357547;19;20048;-65
2023/03/27 04:52:05;;;;;;;0.00;0.00;;;;;;;4.10;64.70;101890.09;7356828;19;20085;-65
2023/03/27 04:54:31;;;;;;;0.05;0.05;;;;;;;4.08;64.72;101896.94;7352890;19;20032;-65
2023/03/27 04:56:56;;;;;;;0.00;0.00;;;;;;;4.06;65.08;101893.47;7358667;19;20398;-65
2023/03/27 04:59:22;;;;;;;0.00;0.00;;;;;;;4.02;65.28;101886.47;7353614;19;20022;-65
2023/03/27 05:01:49;;;;;;;0.00;0.00;;;;;;;4.01;65.66;101885.59;7356503;19;20032;-65
2023/03/27 05:04:15;;;;;;;0.00;0.00;;;;;;;4.00;65.52;101895.88;7357311;19;20029;-65
2023/03/27 05:06:41;;;;;;;0.00;0.00;;;;;;;3.86;65.80;101878.38;7353050;19;20002;-65
2023/03/27 05:09:07;;;;;;;0.00;0.00;;;;;;;3.91;65.83;101886.22;7355682;19;20472;-65
2023/03/27 05:11:33;;;;;;;0.05;0.05;;;;;;;3.92;65.87;101900.03;7355673;19;20010;-65
2023/03/27 05:13:58;;;;;;;0.00;0.00;;;;;;;3.89;66.20;101893.94;7355635;19;20006;-65
2023/03/27 05:16:25;;;;;;;0.00;0.00;;;;;;;3.85;65.90;101892.13;7358219;19;20014;-65
2023/03/27 05:18:50;;;;;;;0.00;0.00;;;;;;;3.85;65.98;101884.38;7353262;19;20010;-65
2023/03/27 05:21:16;;;;;;;0.10;0.10;;;;;;;3.83;66.04;101900.66;7357779;19;20508;-65
2023/03/27 05:23:42;;;;;;;0.00;0.00;;;;;;;3.79;66.40;101898.84;7354968;19;20010;-65
2023/03/27 05:26:07;;;;;;;0.00;0.00;;;;;;;3.77;66.39;101900.53;7359214;19;20021;-66
2023/03/27 05:28:33;;;;;;;0.10;0.10;;;;;;;3.72;66.26;101903.00;7353031;19;20115;-65
2023/03/27 05:30:59;;;;;;;0.10;0.10;;;;;;;3.71;66.05;101905.53;7355276;19;20014;-65
2023/03/27 05:33:24;;;;;;;0.00;0.00;;;;;;;3.55;66.09;101883.63;7355131;19;20014;-65
2023/03/27 05:35:51;;;;;;;0.00;0.00;;;;;;;3.45;66.52;101881.63;7357470;19;20019;-65
2023/03/27 05:38:17;;;;;;;0.00;0.00;;;;;;;3.62;66.50;101912.22;7356120;19;20007;-65
2023/03/27 05:40:43;;;;;;;0.00;0.00;;;;;;;3.60;66.51;101913.03;7355886;19;20014;-65
2023/03/27 05:43:09;;;;;;;0.00;0.00;;;;;;;3.57;66.25;101918.09;7355787;19;20046;-66
2023/03/27 05:45:35;;;;;;;0.05;0.05;;;;;;;3.45;66.42;101892.84;7351572;19;20029;-65
2023/03/27 05:48:01;;;;;;;0.00;0.00;;;;;;;3.53;66.24;101904.22;7353511;19;20006;-66
2023/03/27 05:50:31;;;;;;;0.00;0.00;;;;;;;3.48;66.28;101898.09;7356133;19;20561;-66
2023/03/27 05:53:05;;;;;;;0.00;0.00;;;;;;;3.49;66.82;101904.13;7355537;19;20010;-66
2023/03/27 05:55:31;;;;;;;0.00;0.00;;;;;;;3.47;66.38;101910.97;7357606;19;20034;-66
2023/03/27 05:57:57;;;;;;;0.00;0.00;;;;;;;3.43;66.67;101907.41;7343774;19;20014;-66
2023/03/27 06:00:24;;;;;;;0.00;0.00;;;;;;;3.44;66.70;101908.28;7350618;19;21760;-66
2023/03/27 06:02:55;;;;;;;0.00;0.00;;;;;;;3.29;66.31;101891.56;7351938;19;20042;-66
2023/03/27 06:05:20;;;;;;;0.00;0.00;;;;;;;3.39;66.06;101913.31;7349415;19;20030;-65
2023/03/27 06:07:46;;;;;;;0.00;0.00;;;;;;;3.33;66.03;101908.88;7351216;19;20024;-66
2023/03/27 06:10:16;;;;;;;0.00;0.00;;;;;;;3.39;65.82;101924.53;7352466;19;20031;-65
2023/03/27 06:12:43;;;;;;;0.00;0.00;;;;;;;3.37;65.82;101921.03;7349390;19;20856;-65
2023/03/27 06:15:10;;;;;;;0.00;0.00;;;;;;;3.36;65.83;101919.31;7351998;19;20117;-65
2023/03/27 06:17:38;;;;;;;0.00;0.00;;;;;;;2.99;65.72;101867.53;7350241;19;20431;-66
2023/03/27 06:20:11;;;;;;;0.08;0.08;;;;;;;3.30;65.78;101919.16;7349782;19;20014;-65
2023/03/27 06:23:05;;;;;;;0.00;0.00;;;;;;;3.17;65.34;101905.88;7350282;19;20649;-66
2023/03/27 06:25:32;;;;;;;0.10;0.10;;;;;;;3.33;65.94;101928.66;7218087;19;2004537;-66
2023/03/27 06:27:58;;;;;;;0.00;0.00;;;;;;;3.32;65.87;101929.50;7342835;19;21070;-66
2023/03/27 06:30:25;;;;;;;0.00;0.00;;;;;;;3.19;65.73;101910.22;7354953;19;20006;-66
2023/03/27 06:32:58;;;;;;;0.10;0.10;;;;;;;3.33;65.79;101933.81;7350322;19;20014;-65
2023/03/27 06:35:26;;;;;;;0.00;0.00;;;;;;;3.34;66.04;101927.81;7354633;19;20007;-65
2023/03/27 06:37:52;;;;;;;0.00;0.00;;;;;;;3.33;66.18;101932.13;7338824;19;20009;-65
2023/03/27 06:40:23;;;;;;;0.00;0.00;;;;;;;3.34;66.03;101931.28;7348086;19;20709;-65
2023/03/27 06:43:03;;;;;;;0.00;0.00;;;;;;;3.22;65.89;101917.19;7357692;19;20022;-66
2023/03/27 06:45:37;;;;;;;0.05;0.05;;;;;;;3.34;66.22;101931.28;7360413;19;20695;-60
2023/03/27 06:48:04;;;;;;;0.00;0.00;;;;;;;3.36;66.26;101929.63;7354505;19;20532;-59
2023/03/27 06:50:31;;;;;;;0.08;0.08;;;;;;;3.36;66.53;101934.78;7356648;19;20026;-60
2023/03/27 06:52:57;;;;;;;0.00;0.00;;;;;;;3.25;66.30;101920.72;7357123;19;20046;-59
2023/03/27 06:55:26;;;;;;;0.10;0.10;;;;;;;3.23;66.63;101916.34;7359909;19;20731;-60
2023/03/27 06:57:53;;;;;;;0.00;0.00;;;;;;;3.39;66.17;101939.16;7354807;19;20030;-60
2023/03/27 07:00:23;;;;;;;0.00;0.00;;;;;;;3.38;66.67;101938.28;7350108;19;20462;-60
2023/03/27 07:02:59;;;;;;;0.00;0.00;;;;;;;3.43;66.25;101945.28;7354767;19;21963;-59
2023/03/27 07:05:27;;;;;;;0.00;0.00;;;;;;;3.43;66.25;101940.13;7360908;19;20023;-60
2023/03/27 07:07:55;;;;;;;0.00;0.00;;;;;;;3.44;66.32;101937.56;7360084;19;20082;-61
2023/03/27 07:10:21;;;;;;;0.08;0.08;;;;;;;3.46;66.64;101946.25;7360860;19;20019;-60
2023/03/27 07:12:49;;;;;;;0.00;0.00;;;;;;;3.47;66.74;101939.38;7358763;19;20027;-60
2023/03/27 07:15:16;;;;;;;0.10;0.10;;;;;;;3.49;66.82;101940.25;7359590;19;20015;-60
2023/03/27 07:17:43;;;;;;;0.00;0.00;;;;;;;3.51;66.80;101943.78;7361051;19;20013;-59
2023/03/27 07:20:11;;;;;;;0.00;0.00;;;;;;;3.55;66.94;101945.63;7354784;19;20871;-60
2023/03/27 07:22:36;;;;;;;0.00;0.00;;;;;;;3.56;66.83;101937.91;7359496;19;20061;-60
2023/03/27 07:25:03;;;;;;;0.00;0.00;;;;;;;3.59;67.04;101940.53;7360261;19;20011;-60
2023/03/27 07:27:29;;;;;;;0.08;0.08;;;;;;;3.64;67.32;101945.81;7361402;19;20746;-59
2023/03/27 07:29:57;;;;;;;0.00;0.00;;;;;;;3.66;67.14;101949.34;7360051;19;20022;-59
2023/03/27 07:32:22;;;;;;;;;;;;;;;3.73;65.98;101947.78;7359111;19;20596;-60
2023/03/27 07:34:47;;;;;;;0.00;0.00;;;;;;;3.74;66.88;101947.81;7359253;19;19922;-59
2023/03/27 07:37:13;;;;;;;0.10;0.10;;;;;;;3.78;66.82;101948.78;7360035;19;20014;-59
2023/03/27 07:39:38;;;;;;;0.00;0.00;;;;;;;3.79;66.99;101946.22;7344928;19;20018;-59
2023/03/27 07:42:04;;;;;;;0.00;0.00;;;;;;;3.84;67.49;101952.38;7357747;19;20720;-60
2023/03/27 07:44:29;;;;;;;0.05;0.05;;;;;;;3.88;67.31;101949.03;7360195;19;20022;-60
2023/03/27 07:46:55;;;;;;;0.00;0.00;;;;;;;3.94;67.17;101950.03;7360330;19;20043;-59
2023/03/27 07:49:20;;;;;;;0.00;0.00;;;;;;;3.99;67.29;101954.47;7360616;19;20006;-59
2023/03/27 07:51:46;;;;;;;0.00;0.00;;;;;;;4.04;67.38;101958.03;7357134;19;20014;-60
2023/03/27 07:54:12;;;;;;;0.10;0.10;;;;;;;3.98;67.43;101941.50;7362278;19;20010;-59
2023/03/27 07:56:39;;;;;;;0.03;0.03;;;;;;;4.17;67.28;101961.78;7358744;19;20077;-61
2023/03/27 07:59:05;;;;;;;0.00;0.00;;;;;;;4.23;67.56;101961.94;7358435;19;20010;-60
2023/03/27 08:01:31;;;;;;;0.03;0.03;;;;;;;4.30;67.46;101965.53;7358383;19;20010;-59
2023/03/27 08:03:56;;;;;;;0.00;0.00;;;;;;;4.37;67.46;101968.31;7360776;19;20037;-60
2023/03/27 08:06:22;;;;;;;0.00;0.00;;;;;;;4.43;67.30;101965.84;7358630;19;20387;-60
2023/03/27 08:08:49;;;;;;;0.10;0.10;;;;;;;4.54;67.25;101980.75;7362194;19;20015;-59
2023/03/27 08:11:16;;;;;;;0.00;0.00;;;;;;;4.62;67.08;101974.03;7356349;19;20043;-59
2023/03/27 08:13:41;;;;;;;0.00;0.00;;;;;;;4.68;67.17;101977.63;7357904;19;20609;-60
2023/03/27 08:16:16;;;;;;;0.00;0.00;;;;;;;4.83;66.81;101984.84;7360673;19;20018;-60
2023/03/27 08:18:43;;;;;;;0.10;0.10;;;;;;;4.90;67.01;101976.34;7357051;19;20014;-60
2023/03/27 08:21:10;;;;;;;0.10;0.10;;;;;;;5.00;66.82;101974.84;7357532;19;20038;-60
2023/03/27 08:23:36;;;;;;;0.00;0.00;;;;;;;5.11;66.99;101975.91;7358449;19;20014;-60
2023/03/27 08:26:02;;;;;;;0.10;0.10;;;;;;;5.25;66.72;101978.78;7359363;19;20477;-59
2023/03/27 08:28:33;;;;;;;0.00;0.00;;;;;;;5.43;67.02;101978.28;7359842;19;20011;-60
2023/03/27 08:31:01;;;;;;;0.00;0.00;;;;;;;5.57;66.99;101981.13;7359752;19;20023;-59
2023/03/27 08:33:27;;;;;;;0.10;0.10;;;;;;;5.63;66.54;101970.88;7353878;19;20006;-60
2023/03/27 08:35:53;;;;;;;0.00;0.00;;;;;;;5.82;66.60;101967.75;7361064;19;20653;-60
2023/03/27 08:38:19;;;;;;;0.00;0.00;;;;;;;6.09;66.34;101980.34;7358690;19;20081;-60
2023/03/27 08:40:53;;;;;;;0.00;0.00;;;;;;;6.32;66.49;101974.63;7357056;19;20021;-60
2023/03/27 08:43:26;;;;;;;0.00;0.00;;;;;;;6.51;66.47;101971.47;7357914;19;20015;-59
2023/03/27 08:46:29;;;;;;;0.00;0.00;;;;;;;6.73;66.36;101968.31;7359453;19;20486;-60
2023/03/27 08:49:07;;;;;;;0.10;0.10;;;;;;;6.93;66.01;101968.56;7256302;19;2004657;-60
2023/03/27 08:51:32;;;;;;;;;;;;;;;7.14;65.83;101972.28;7361439;19;21087;-59
2023/03/27 08:54:11;;;;;;;0.00;0.00;;;;;;;7.30;65.55;101974.22;7355261;19;19942;-60
2023/03/27 08:56:36;;;;;;;0.05;0.05;;;;;;;7.42;65.38;101970.88;7359739;19;20006;-60
2023/03/27 08:59:02;;;;;;;0.00;0.00;;;;;;;7.46;64.88;101951.88;7358595;19;22853;-60
2023/03/27 09:01:39;;;;;;;0.00;0.00;;;;;;;7.71;65.33;101963.38;7359856;19;20007;-60
2023/03/27 09:04:31;;;;;;;0.05;0.05;;;;;;;7.86;64.97;101962.66;7352461;19;20375;-60
2023/03/27 09:07:17;;;;;;;0.00;0.00;;;;;;;7.99;64.78;101964.47;7255792;19;2005834;-60
2023/03/27 09:09:54;;;;;;;0.00;0.00;;;;;;;8.14;65.13;101963.72;7358647;19;20097;-60
2023/03/27 09:12:32;;;;;;;0.00;0.00;;;;;;;8.23;64.64;101963.78;7357948;19;20014;-60
2023/03/27 09:15:14;;;;;;;0.00;0.00;;;;;;;8.28;64.42;101941.28;7356202;19;20023;-60
2023/03/27 09:17:55;;;;;;;0.00;0.00;;;;;;;8.53;64.51;101953.63;7357792;19;20006;-60
2023/03/27 09:20:31;;;;;;;0.00;0.00;;;;;;;8.66;64.38;101958.88;7357305;19;20002;-61
2023/03/27 09:23:12;;;;;;;0.00;0.00;;;;;;;8.80;64.53;101958.09;7356887;19;20018;-60
2023/03/27 09:25:44;;;;;;;0.10;0.10;;;;;;;8.88;63.76;101958.13;7357044;19;20106;-59
2023/03/27 09:28:49;;;;;;;0.00;0.00;;;;;;;9.07;64.06;101949.53;7355801;19;20359;-60
2023/03/27 09:31:22;;;;;;;0.00;0.00;;;;;;;9.18;63.38;101956.50;7253828;19;2004533;-59
2023/03/27 09:33:47;;;;;;;0.00;0.00;;;;;;;9.29;63.34;101963.50;7356258;19;20011;-60
2023/03/27 09:36:13;;;;;;;0.00;0.00;;;;;;;9.44;63.10;101959.19;7356585;19;20018;-59
2023/03/27 09:38:43;;;;;;;0.10;0.10;;;;;;;9.66;62.87;101957.47;7357490;19;20007;-60
2023/03/27 09:41:15;;;;;;;0.10;0.10;;;;;;;9.87;62.57;101952.28;7358155;19;20016;-60
2023/03/27 09:43:46;;;;;;;0.00;0.00;;;;;;;10.12;62.43;101953.13;7358873;19;20070;-60
2023/03/27 09:46:18;;;;;;;0.03;0.03;;;;;;;10.34;62.42;101948.78;7356621;19;20906;-59
2023/03/27 09:49:02;;;;;;;0.05;0.05;;;;;;;10.78;63.10;101948.66;7358499;19;20023;-60
2023/03/27 09:51:36;;;;;;;0.00;0.00;;;;;;;11.21;62.19;101947.63;7358623;19;20010;-60
2023/03/27 09:54:02;;;;;;;0.00;0.00;;;;;;;11.54;60.81;101950.03;7357304;19;20804;-60
2023/03/27 09:56:28;;;;;;;0.00;0.00;;;;;;;11.88;60.05;101961.16;7358138;19;20041;-60
2023/03/27 09:58:56;;;;;;;0.10;0.10;;;;;;;12.23;60.16;101952.13;7355824;19;20010;-60
2023/03/27 10:01:36;;;;;;;0.10;0.10;;;;;;;12.60;58.95;101944.75;7358117;19;20014;-60
2023/03/27 10:04:12;;;;;;;0.00;0.00;;;;;;;12.78;58.11;101945.44;7356998;19;20018;-59
2023/03/27 10:06:44;;;;;;;0.10;0.10;;;;;;;12.93;57.36;101945.25;7354225;19;20018;-59
2023/03/27 10:09:22;;;;;;;0.00;0.00;;;;;;;13.07;57.56;101940.66;7356187;19;20006;-59
2023/03/27 10:11:50;;;;;;;0.00;0.00;;;;;;;13.12;55.43;101936.22;7351528;19;20014;-60
2023/03/27 10:14:18;;;;;;;0.10;0.10;;;;;;;13.23;55.95;101934.38;7357085;19;20018;-60
2023/03/27 10:16:46;;;;;;;0.10;0.10;;;;;;;13.36;55.15;101942.06;7364064;19;20017;-60
2023/03/27 10:19:32;;;;;;;0.08;0.08;;;;;;;13.44;57.20;101919.22;7362355;19;20086;-60
2023/03/27 10:22:06;;;;;;;0.00;0.00;;;;;;;13.62;55.11;101939.91;7362400;19;20086;-61
2023/03/27 10:24:34;;;;;;;0.03;0.03;;;;;;;13.74;54.20;101942.38;7363675;19;20100;-59
2023/03/27 10:27:03;;;;;;;0.00;0.00;;;;;;;13.90;54.83;101942.13;7361521;19;20014;-60
2023/03/27 10:29:35;;;;;;;0.00;0.00;;;;;;;14.14;55.01;101939.06;7360011;19;20026;-60
2023/03/27 10:32:03;;;;;;;0.00;0.00;;;;;;;14.34;53.69;101936.06;7362748;19;20484;-60
2023/03/27 10:34:42;;;;;;;0.10;0.10;;;;;;;14.59;53.05;101933.88;7363592;19;20049;-59
2023/03/27 10:37:26;;;;;;;0.08;0.08;;;;;;;14.98;55.46;101934.81;7362063;19;20010;-60
2023/03/27 10:39:54;;;;;;;0.10;0.10;;;;;;;15.14;52.81;101931.84;7359324;19;20039;-60
2023/03/27 10:42:21;;;;;;;0.10;0.10;;;;;;;15.34;51.91;101929.66;7359628;19;20375;-60
2023/03/27 10:44:48;;;;;;;0.10;0.10;;;;;;;15.57;51.12;101923.84;7363154;19;20010;-60
2023/03/27 10:47:22;;;;;;;0.10;0.10;;;;;;;15.83;53.04;101924.13;7361880;19;20006;-59
2023/03/27 10:49:57;;;;;;;0.10;0.10;;;;;;;16.00;52.53;101915.78;7361741;19;20042;-60
2023/03/27 10:52:38;;;;;;;0.10;0.10;;;;;;;16.22;52.31;101909.94;7361007;19;20073;-60
2023/03/27 10:55:15;;;;;;;0.10;0.10;;;;;;;16.40;49.76;101909.44;7362811;19;20851;-60
2023/03/27 10:57:48;;;;;;;0.10;0.10;;;;;;;16.74;50.74;101909.38;7363406;19;20375;-60
2023/03/27 11:00:18;;;;;;;0.10;0.10;;;;;;;17.02;50.50;101903.28;7361268;19;20010;-60
2023/03/27 11:02:56;;;;;;;0.05;0.05;;;;;;;17.36;49.75;101908.38;7362448;19;20010;-60
2023/03/27 11:05:36;;;;;;;0.10;0.10;;;;;;;17.76;51.51;101902.69;7361938;19;20095;-60
2023/03/27 11:08:08;;;;;;;0.10;0.10;;;;;;;18.05;48.17;101899.06;7360134;19;20470;-60
2023/03/27 11:10:41;;;;;;;0.10;0.10;;;;;;;18.43;48.57;101899.47;7362272;19;20384;-60
2023/03/27 11:13:18;;;;;;;0.08;0.08;;;;;;;18.80;49.13;101901.66;7358494;19;20774;-60
2023/03/27 11:15:54;;;;;;;0.00;0.00;;;;;;;19.15;48.84;101894.13;7363625;19;20088;-60
2023/03/27 11:18:25;;;;;;;0.10;0.10;;;;;;;19.49;45.95;101898.09;7362147;19;20029;-60
2023/03/27 11:21:00;;;;;;;0.10;0.10;;;;;;;19.90;47.85;101889.28;7361200;19;20288;-60
2023/03/27 11:23:44;;;;;;;0.10;0.10;;;;;;;20.35;48.36;101890.88;7359783;19;20025;-60
2023/03/27 11:26:14;;;;;;;0.10;0.10;;;;;;;20.37;42.85;101851.84;7360304;19;20042;-60
2023/03/27 11:29:14;;;;;;;0.10;0.10;;;;;;;20.98;45.20;101888.88;7359539;19;20019;-60
2023/03/27 11:31:44;;;;;;;0.00;0.00;;;;;;;21.21;42.44;101886.91;7257306;19;2004143;-60
2023/03/27 11:34:38;;;;;;;0.10;0.10;;;;;;;21.56;44.95;101887.88;7360623;19;20019;-60
2023/03/27 11:37:19;;;;;;;0.10;0.10;;;;;;;21.78;43.19;101892.97;7257506;19;2004642;-60
2023/03/27 11:39:54;;;;;;;0.10;0.10;;;;;;;21.77;42.52;101888.59;7358958;19;20035;-60
2023/03/27 11:42:25;;;;;;;0.10;0.10;;;;;;;21.75;41.09;101871.88;7359077;19;20537;-60
2023/03/27 11:44:51;;;;;;;0.00;0.00;;;;;;;21.81;39.63;101870.69;7361048;19;20002;-60
2023/03/27 11:47:42;;;;;;;0.10;0.10;;;;;;;22.11;44.10;101878.91;7358779;19;20097;-60
2023/03/27 11:50:31;;;;;;;0.10;0.10;;;;;;;22.11;41.69;101879.78;7259263;19;2004396;-60